Time;durP1;ratioP1;P1;durP2;ratioP2;P2;SDS_P1;SDS_P2;PMS_P1;PMS_P2;Temp;Humidity;BMP_temperature;BMP_pressure;BME280_temperature;BME280_humidity;BME280_pressure;Samples;Min_cycle;Max_cycle;Signal;HPM_P1;HPM_P2
2023/04/18 00:02:19;;;;;;;17.25;11.93;;;8.30;99.90;;;;;;5051954;28;20095;-76
2023/04/18 00:04:45;;;;;;;13.43;11.52;;;8.30;99.90;;;;;;5051674;28;20037;-76
2023/04/18 00:07:13;;;;;;;16.58;10.65;;;8.20;99.90;;;;;;5051546;28;20044;-76
2023/04/18 00:09:40;;;;;;;15.70;10.43;;;8.20;99.90;;;;;;5051741;28;20500;-76
2023/04/18 00:12:05;;;;;;;13.57;10.48;;;8.10;99.90;;;;;;5051719;28;20501;-76
2023/04/18 00:14:33;;;;;;;12.45;10.13;;;8.20;99.90;;;;;;5051624;28;20041;-76
2023/04/18 00:17:00;;;;;;;16.42;11.35;;;8.10;99.90;;;;;;5034890;28;20049;-77
2023/04/18 00:19:26;;;;;;;15.05;9.68;;;8.20;99.90;;;;;;5051583;28;20041;-77
2023/04/18 00:21:52;;;;;;;15.05;9.88;;;8.20;99.90;;;;;;5051642;28;20037;-77
2023/04/18 00:24:18;;;;;;;16.45;9.73;;;8.30;99.90;;;;;;5034739;28;20046;-76
2023/04/18 00:26:44;;;;;;;13.02;8.43;;;8.10;99.90;;;;;;5051313;28;20066;-76
2023/04/18 00:29:10;;;;;;;15.15;9.40;;;8.10;99.90;;;;;;5051364;28;20037;-77
2023/04/18 00:31:36;;;;;;;15.57;9.77;;;8.10;99.90;;;;;;5034635;28;20416;-77
2023/04/18 00:34:02;;;;;;;11.30;8.38;;;8.10;99.90;;;;;;5051460;28;20079;-77
2023/04/18 00:36:27;;;;;;;17.13;9.15;;;8.10;99.90;;;;;;5050822;28;20048;-77
2023/04/18 00:38:53;;;;;;;14.32;8.90;;;8.10;99.90;;;;;;5052678;28;20049;-77
2023/04/18 00:41:20;;;;;;;14.65;8.40;;;8.10;99.90;;;;;;5051037;28;20496;-77
2023/04/18 00:43:46;;;;;;;11.30;8.35;;;8.10;99.90;;;;;;5051081;28;20048;-77
2023/04/18 00:46:11;;;;;;;12.60;8.63;;;8.00;99.90;;;;;;5050967;28;20044;-77
2023/04/18 00:48:38;;;;;;;9.20;7.00;;;7.90;99.90;;;;;;5051101;28;20037;-77
2023/04/18 00:51:06;;;;;;;10.93;8.27;;;8.00;99.90;;;;;;5050806;28;20045;-77
2023/04/18 00:53:32;;;;;;;11.48;8.07;;;8.00;99.90;;;;;;5051362;28;20124;-77
2023/04/18 00:55:57;;;;;;;9.65;7.30;;;7.90;99.90;;;;;;5033973;28;20148;-77
2023/04/18 00:58:23;;;;;;;11.68;6.85;;;7.90;99.90;;;;;;5034244;28;20041;-77
2023/04/18 01:00:49;;;;;;;11.27;7.10;;;7.80;99.90;;;;;;5050752;28;20055;-76
2023/04/18 01:03:16;;;;;;;15.80;8.48;;;7.80;99.90;;;;;;5050921;28;20072;-77
2023/04/18 01:05:43;;;;;;;16.17;8.88;;;7.80;99.90;;;;;;5050467;28;20131;-77
2023/04/18 01:08:09;;;;;;;13.68;9.45;;;7.80;99.90;;;;;;5050683;28;20053;-76
2023/04/18 01:10:36;;;;;;;15.43;9.05;;;7.70;99.90;;;;;;5050586;28;20056;-76
2023/04/18 01:13:14;;;;;;;17.33;9.68;;;7.60;99.90;;;;;;5033998;28;20052;-77
2023/04/18 01:15:47;;;;;;;15.00;9.88;;;7.70;99.90;;;;;;5033777;28;20076;-77
2023/04/18 01:18:17;;;;;;;13.20;8.68;;;7.80;99.90;;;;;;5050570;28;20062;-77
2023/04/18 01:20:48;;;;;;;12.00;9.13;;;7.70;99.90;;;;;;5050735;28;20052;-76
2023/04/18 01:23:14;;;;;;;14.90;9.18;;;7.60;99.90;;;;;;5067183;28;20048;-77
2023/04/18 01:25:40;;;;;;;13.75;9.15;;;7.60;99.90;;;;;;5050435;28;20090;-77
2023/04/18 01:28:06;;;;;;;13.25;9.68;;;7.60;99.90;;;;;;5050422;28;20042;-77
2023/04/18 01:30:33;;;;;;;11.32;8.90;;;7.60;99.90;;;;;;5033704;28;20040;-79
2023/04/18 01:33:03;;;;;;;13.82;9.73;;;7.60;99.90;;;;;;5050280;28;20057;-77
2023/04/18 01:35:29;;;;;;;14.55;10.00;;;7.60;99.90;;;;;;5051510;28;20055;-77
2023/04/18 01:37:56;;;;;;;14.35;10.30;;;7.70;99.90;;;;;;5050232;28;20416;-76
2023/04/18 01:40:21;;;;;;;13.32;9.20;;;7.70;99.90;;;;;;5050291;28;20040;-77
2023/04/18 01:42:47;;;;;;;16.10;9.55;;;7.50;99.90;;;;;;5057033;28;20041;-77
2023/04/18 01:45:13;;;;;;;15.30;10.45;;;7.50;99.90;;;;;;5056801;28;20045;-77
2023/04/18 01:47:38;;;;;;;14.80;10.43;;;7.60;99.90;;;;;;5056818;28;20044;-77
2023/04/18 01:50:04;;;;;;;15.68;9.15;;;7.60;99.90;;;;;;5040025;28;20041;-77
2023/04/18 01:52:30;;;;;;;17.40;10.75;;;7.60;99.90;;;;;;5056817;28;20512;-76
2023/04/18 01:54:56;;;;;;;14.32;9.90;;;7.60;99.90;;;;;;5040007;28;20079;-77
2023/04/18 01:57:21;;;;;;;15.20;10.07;;;7.70;99.90;;;;;;5056648;28;20044;-76
2023/04/18 01:59:47;;;;;;;15.40;10.52;;;7.70;99.90;;;;;;5056667;28;20044;-77
2023/04/18 02:02:13;;;;;;;13.30;10.23;;;7.70;99.90;;;;;;5056682;28;20048;-77
2023/04/18 02:04:38;;;;;;;14.73;9.85;;;7.70;99.90;;;;;;5056604;28;20045;-77
2023/04/18 02:07:04;;;;;;;14.40;8.65;;;7.80;99.90;;;;;;5039981;28;20087;-77
2023/04/18 02:09:30;;;;;;;14.90;9.77;;;7.80;99.90;;;;;;5056690;28;20040;-77
2023/04/18 02:11:58;;;;;;;13.68;9.18;;;7.80;99.90;;;;;;5056737;28;20072;-77
2023/04/18 02:14:25;;;;;;;18.95;10.73;;;7.70;99.90;;;;;;5056518;28;20504;-77
2023/04/18 02:16:51;;;;;;;13.25;8.50;;;7.80;99.90;;;;;;5056453;28;20052;-77
2023/04/18 02:19:16;;;;;;;13.10;9.25;;;7.80;99.90;;;;;;5056662;28;20037;-77
2023/04/18 02:21:43;;;;;;;13.02;9.13;;;7.80;99.90;;;;;;5056577;28;20040;-77
2023/04/18 02:24:09;;;;;;;13.82;8.45;;;7.70;99.90;;;;;;5039864;28;20489;-77
2023/04/18 02:26:34;;;;;;;11.45;8.27;;;7.80;99.90;;;;;;5039583;28;20124;-77
2023/04/18 02:29:00;;;;;;;11.00;8.35;;;7.80;99.90;;;;;;5056837;28;20053;-77
2023/04/18 02:31:25;;;;;;;12.07;7.47;;;7.90;99.90;;;;;;5056524;28;20424;-76
2023/04/18 02:33:51;;;;;;;12.07;8.68;;;7.90;99.90;;;;;;5040166;28;20036;-77
2023/04/18 02:36:16;;;;;;;14.68;8.63;;;8.00;99.90;;;;;;5039570;28;20037;-77
2023/04/18 02:38:43;;;;;;;12.07;7.93;;;7.90;99.90;;;;;;5056471;28;20041;-76
2023/04/18 02:41:13;;;;;;;12.20;8.63;;;7.90;99.90;;;;;;5057246;28;20500;-77
2023/04/18 02:43:39;;;;;;;12.45;8.95;;;8.00;99.90;;;;;;5040896;28;20052;-78
2023/04/18 02:46:05;;;;;;;12.50;7.00;;;8.00;99.90;;;;;;5056786;28;20072;-77
2023/04/18 02:48:31;;;;;;;10.75;7.60;;;8.00;99.90;;;;;;5056660;28;20047;-77
2023/04/18 02:51:04;;;;;;;11.95;7.88;;;7.90;99.90;;;;;;5056329;28;20053;-76
2023/04/18 02:53:29;;;;;;;11.30;7.72;;;7.90;99.90;;;;;;5053437;28;20045;-77
2023/04/18 02:55:55;;;;;;;10.05;6.63;;;7.90;99.90;;;;;;5036291;28;20447;-76
2023/04/18 02:58:21;;;;;;;9.80;7.05;;;8.00;99.90;;;;;;5053078;28;20041;-76
2023/04/18 03:00:48;;;;;;;11.63;7.60;;;8.00;99.90;;;;;;5052933;28;20091;-77
2023/04/18 03:03:14;;;;;;;12.52;7.38;;;7.90;99.90;;;;;;5053003;28;20041;-77
2023/04/18 03:05:40;;;;;;;13.23;6.57;;;7.90;99.90;;;;;;5052765;28;20037;-76
2023/04/18 03:08:05;;;;;;;10.65;6.57;;;7.90;99.90;;;;;;5052956;28;20037;-77
2023/04/18 03:10:31;;;;;;;10.00;6.65;;;8.00;99.90;;;;;;5036171;28;20040;-77
2023/04/18 03:12:56;;;;;;;10.68;7.10;;;8.00;99.90;;;;;;5052772;28;20086;-77
2023/04/18 03:15:22;;;;;;;10.90;6.35;;;7.90;99.90;;;;;;5052599;28;20132;-76
2023/04/18 03:17:49;;;;;;;11.07;6.65;;;7.90;99.90;;;;;;5052615;28;20041;-77
2023/04/18 03:20:14;;;;;;;8.98;6.13;;;8.00;99.90;;;;;;5054059;28;20581;-76
2023/04/18 03:22:40;;;;;;;9.00;6.60;;;8.00;99.90;;;;;;5036356;28;20127;-76
2023/04/18 03:25:06;;;;;;;11.10;6.50;;;7.90;99.90;;;;;;5052405;28;20523;-77
2023/04/18 03:27:31;;;;;;;9.65;6.32;;;8.00;99.90;;;;;;5035767;28;20059;-77
2023/04/18 03:29:57;;;;;;;8.52;6.10;;;7.90;99.90;;;;;;5052430;28;20463;-76
2023/04/18 03:32:22;;;;;;;10.10;5.93;;;8.00;99.90;;;;;;5052521;28;20048;-77
2023/04/18 03:34:48;;;;;;;10.27;6.43;;;7.90;99.90;;;;;;5053481;28;20040;-77
2023/04/18 03:37:14;;;;;;;9.48;6.35;;;7.90;99.90;;;;;;5052237;28;20041;-77
2023/04/18 03:39:39;;;;;;;9.98;5.90;;;8.00;99.90;;;;;;5035740;28;20497;-77
2023/04/18 03:42:05;;;;;;;8.55;5.70;;;8.00;99.90;;;;;;5052208;28;20508;-77
2023/04/18 03:44:30;;;;;;;9.30;5.88;;;8.00;99.90;;;;;;5051864;28;20041;-76
2023/04/18 03:46:56;;;;;;;8.82;6.00;;;8.00;99.90;;;;;;5052319;28;20051;-76
2023/04/18 03:49:21;;;;;;;8.52;5.20;;;8.00;99.90;;;;;;5052342;28;20044;-76
2023/04/18 03:51:47;;;;;;;8.35;5.88;;;8.00;99.90;;;;;;5051966;28;20676;-76
2023/04/18 03:54:14;;;;;;;8.27;5.40;;;8.00;99.90;;;;;;5051973;28;20531;-77
2023/04/18 03:56:40;;;;;;;7.72;4.75;;;8.00;99.90;;;;;;5068264;28;20126;-77
2023/04/18 03:59:06;;;;;;;8.90;5.03;;;7.90;99.90;;;;;;5051925;28;20045;-77
2023/04/18 04:01:32;;;;;;;7.63;5.20;;;7.90;99.90;;;;;;5051797;28;20044;-77
2023/04/18 04:04:00;;;;;;;8.88;5.80;;;8.00;99.90;;;;;;5035118;28;20529;-77
2023/04/18 04:06:26;;;;;;;7.90;5.57;;;8.10;99.90;;;;;;5051742;28;20044;-77
2023/04/18 04:08:51;;;;;;;8.38;5.32;;;8.00;99.90;;;;;;5035144;28;20580;-77
2023/04/18 04:11:17;;;;;;;9.23;5.47;;;8.00;99.90;;;;;;5051678;28;20120;-77
2023/04/18 04:13:43;;;;;;;7.20;4.97;;;8.00;99.90;;;;;;5051574;28;20138;-77
2023/04/18 04:16:08;;;;;;;6.70;4.90;;;8.00;99.90;;;;;;5051481;28;20044;-76
2023/04/18 04:18:34;;;;;;;10.25;4.90;;;8.00;99.90;;;;;;5051884;28;20507;-77
2023/04/18 04:21:00;;;;;;;7.45;5.78;;;7.90;99.90;;;;;;5051676;28;20037;-76
2023/04/18 04:23:25;;;;;;;10.27;5.55;;;8.00;99.90;;;;;;5051573;28;20033;-76
2023/04/18 04:25:55;;;;;;;8.40;5.65;;;8.00;99.90;;;;;;5052585;28;20033;-76
2023/04/18 04:28:21;;;;;;;11.95;6.28;;;8.00;99.90;;;;;;5051590;28;20122;-76
2023/04/18 04:30:51;;;;;;;11.60;5.97;;;8.00;99.90;;;;;;5034901;28;20477;-77
2023/04/18 04:33:24;;;;;;;8.63;5.65;;;8.00;99.90;;;;;;5051295;28;20500;-77
2023/04/18 04:35:51;;;;;;;9.18;6.35;;;8.00;99.90;;;;;;5051085;28;20131;-77
2023/04/18 04:38:18;;;;;;;9.07;6.50;;;7.90;99.90;;;;;;5034553;28;20037;-77
2023/04/18 04:40:45;;;;;;;10.35;6.28;;;8.00;99.90;;;;;;5034444;28;20040;-77
2023/04/18 04:43:14;;;;;;;9.75;6.80;;;8.00;99.90;;;;;;5051347;28;20124;-77
2023/04/18 04:45:40;;;;;;;10.05;6.75;;;7.90;99.90;;;;;;5034234;28;20094;-76
2023/04/18 04:48:10;;;;;;;9.93;5.93;;;8.00;99.90;;;;;;5051268;28;20056;-77
2023/04/18 04:50:37;;;;;;;10.30;7.05;;;8.00;99.90;;;;;;5052129;28;20029;-77
2023/04/18 04:53:06;;;;;;;9.70;6.65;;;8.00;99.90;;;;;;5050987;28;20084;-77
2023/04/18 04:55:32;;;;;;;10.35;7.50;;;8.00;99.90;;;;;;5050631;28;20045;-76
2023/04/18 04:57:58;;;;;;;9.88;7.35;;;7.90;99.90;;;;;;5050895;28;20411;-77
2023/04/18 05:00:23;;;;;;;13.35;7.72;;;7.90;99.90;;;;;;5050723;28;20041;-77
2023/04/18 05:02:52;;;;;;;11.65;7.57;;;7.90;99.90;;;;;;5034435;28;20040;-77
2023/04/18 05:05:18;;;;;;;13.65;7.50;;;7.90;99.90;;;;;;5050581;28;20055;-76
2023/04/18 05:07:43;;;;;;;13.45;7.82;;;7.90;99.90;;;;;;5051989;28;20041;-77
2023/04/18 05:10:09;;;;;;;14.68;8.85;;;7.80;99.90;;;;;;5051054;28;20045;-77
2023/04/18 05:12:35;;;;;;;11.85;8.55;;;7.90;99.90;;;;;;5050475;28;20068;-77
2023/04/18 05:15:00;;;;;;;11.45;8.07;;;7.90;99.90;;;;;;5033889;28;20044;-76
2023/04/18 05:17:26;;;;;;;13.10;7.57;;;7.90;99.90;;;;;;5049988;28;20531;-77
2023/04/18 05:19:51;;;;;;;13.07;8.30;;;7.90;99.90;;;;;;5050368;28;20029;-76
2023/04/18 05:22:17;;;;;;;12.40;8.80;;;8.00;99.90;;;;;;5050474;28;20037;-77
2023/04/18 05:24:42;;;;;;;16.23;9.45;;;8.00;99.90;;;;;;5050573;28;20047;-77
2023/04/18 05:27:08;;;;;;;13.18;8.93;;;8.00;99.90;;;;;;5050255;28;20045;-76
2023/04/18 05:29:34;;;;;;;12.40;9.05;;;7.90;99.90;;;;;;5050400;28;20048;-77
2023/04/18 05:32:00;;;;;;;13.70;9.30;;;7.90;99.90;;;;;;5051718;28;20117;-77
2023/04/18 05:34:26;;;;;;;13.85;9.70;;;8.00;99.90;;;;;;5050438;28;20404;-77
2023/04/18 05:36:51;;;;;;;15.88;9.32;;;8.00;99.90;;;;;;5050181;28;20041;-77
2023/04/18 05:39:17;;;;;;;13.20;8.52;;;8.00;99.90;;;;;;5050202;28;20043;-77
2023/04/18 05:41:42;;;;;;;14.68;9.82;;;8.10;99.90;;;;;;5050022;28;20037;-76
2023/04/18 05:44:08;;;;;;;13.15;9.45;;;8.00;99.90;;;;;;5050264;28;20063;-76
2023/04/18 05:46:34;;;;;;;16.33;9.68;;;8.10;99.90;;;;;;5049920;28;20124;-77
2023/04/18 05:48:59;;;;;;;13.35;8.88;;;8.30;99.90;;;;;;5050218;28;20048;-77
2023/04/18 05:51:25;;;;;;;13.00;8.98;;;8.20;99.90;;;;;;5050110;28;20079;-77
2023/04/18 05:53:51;;;;;;;14.05;10.23;;;8.20;99.90;;;;;;5050472;28;20040;-78
2023/04/18 05:56:16;;;;;;;15.25;10.48;;;8.30;99.90;;;;;;5051229;28;20538;-77
2023/04/18 05:58:43;;;;;;;14.32;10.10;;;8.60;99.90;;;;;;5050118;28;20037;-77
2023/04/18 06:01:09;;;;;;;15.38;8.38;;;8.70;99.90;;;;;;5041530;28;20050;-77
2023/04/18 06:03:35;;;;;;;15.60;9.90;;;8.60;99.90;;;;;;5013615;28;20045;-77
2023/04/18 06:06:00;;;;;;;13.48;9.02;;;8.60;99.90;;;;;;5013535;28;20045;-77
2023/04/18 06:08:26;;;;;;;13.45;9.60;;;8.50;99.90;;;;;;5032095;28;20060;-79
2023/04/18 06:10:51;;;;;;;14.93;10.05;;;8.50;99.90;;;;;;5030262;28;20052;-78
2023/04/18 06:13:17;;;;;;;12.80;8.75;;;8.50;99.90;;;;;;5030745;28;20045;-77
2023/04/18 06:15:43;;;;;;;15.05;8.85;;;8.50;99.90;;;;;;5030365;28;20413;-78
2023/04/18 06:18:08;;;;;;;12.35;8.60;;;8.60;99.90;;;;;;5030874;28;20041;-78
2023/04/18 06:20:34;;;;;;;12.88;8.93;;;8.80;99.90;;;;;;5031189;28;20045;-80
2023/04/18 06:22:59;;;;;;;12.10;8.60;;;9.10;99.90;;;;;;5032811;28;20033;-78
2023/04/18 06:25:25;;;;;;;14.35;8.13;;;9.30;99.90;;;;;;5031386;28;20041;-78
2023/04/18 06:27:50;;;;;;;12.68;8.40;;;9.50;99.90;;;;;;5031694;28;20087;-78
2023/04/18 06:30:18;;;;;;;15.70;8.82;;;9.60;98.80;;;;;;5034969;28;20068;-78
2023/04/18 06:32:44;;;;;;;12.50;8.50;;;9.70;98.10;;;;;;5017613;28;20124;-78
2023/04/18 06:35:09;;;;;;;9.50;8.18;;;9.90;98.20;;;;;;5033988;28;20080;-79
2023/04/18 06:37:35;;;;;;;11.32;8.57;;;10.10;97.70;;;;;;5034440;28;20041;-77
2023/04/18 06:40:01;;;;;;;12.73;8.25;;;10.00;97.80;;;;;;5033788;28;20100;-77
2023/04/18 06:42:26;;;;;;;11.05;8.50;;;10.10;97.90;;;;;;5034034;28;20581;-78
2023/04/18 06:44:52;;;;;;;14.02;9.38;;;10.00;98.10;;;;;;5034296;28;20547;-77
2023/04/18 06:47:17;;;;;;;10.07;7.68;;;10.20;97.40;;;;;;5016821;28;20077;-78
2023/04/18 06:49:43;;;;;;;11.55;8.00;;;10.20;97.20;;;;;;5033791;28;20132;-77
2023/04/18 06:52:08;;;;;;;12.63;8.30;;;10.30;97.40;;;;;;5033803;28;20052;-77
2023/04/18 06:54:34;;;;;;;13.52;8.13;;;10.40;97.10;;;;;;5033636;28;20041;-78
2023/04/18 06:57:01;;;;;;;12.35;8.40;;;10.50;96.80;;;;;;5033570;28;20037;-77
2023/04/18 06:59:26;;;;;;;12.45;7.88;;;10.40;95.30;;;;;;5017646;28;20037;-78
2023/04/18 07:01:52;;;;;;;13.98;8.15;;;10.50;95.30;;;;;;5017226;28;20599;-78
2023/04/18 07:04:17;;;;;;;11.70;9.00;;;10.40;95.20;;;;;;5017942;28;20412;-78
2023/04/18 07:06:43;;;;;;;11.60;8.80;;;10.60;95.40;;;;;;5033789;28;20044;-77
2023/04/18 07:09:08;;;;;;;13.40;8.45;;;10.70;94.80;;;;;;5017179;28;20045;-78
2023/04/18 07:11:34;;;;;;;11.25;7.88;;;10.70;94.40;;;;;;5033710;28;20087;-78
2023/04/18 07:13:59;;;;;;;11.07;8.35;;;10.90;94.10;;;;;;5046976;28;20041;-76
2023/04/18 07:16:25;;;;;;;10.93;8.57;;;10.90;93.20;;;;;;5048914;28;20416;-77
2023/04/18 07:18:50;;;;;;;14.80;8.48;;;11.00;93.40;;;;;;5041885;28;20040;-77
2023/04/18 07:21:17;;;;;;;13.00;8.85;;;11.10;93.30;;;;;;5025983;28;20544;-77
2023/04/18 07:23:43;;;;;;;13.07;8.40;;;11.10;93.10;;;;;;5043806;28;20041;-78
2023/04/18 07:26:10;;;;;;;11.15;9.13;;;11.30;92.90;;;;;;5047192;28;20045;-78
2023/04/18 07:28:35;;;;;;;12.23;7.78;;;11.30;92.70;;;;;;5036947;28;20037;-77
2023/04/18 07:31:02;;;;;;;11.20;8.57;;;11.40;91.90;;;;;;5053400;28;20455;-77
2023/04/18 07:33:30;;;;;;;14.02;8.35;;;11.40;90.80;;;;;;5053430;28;20098;-77
2023/04/18 07:35:56;;;;;;;10.68;7.90;;;11.50;90.80;;;;;;5052716;28;20128;-76
2023/04/18 07:38:22;;;;;;;15.27;9.60;;;11.50;90.50;;;;;;5053692;28;20064;-76
2023/04/18 07:40:58;;;;;;;11.00;7.90;;;11.70;91.00;;;;;;5051255;28;20621;-76
2023/04/18 07:43:24;;;;;;;14.90;8.65;;;11.90;90.80;;;;;;5032388;28;20091;-75
2023/04/18 07:45:50;;;;;;;11.15;8.80;;;11.60;90.60;;;;;;5035419;28;20551;-73
2023/04/18 07:48:16;;;;;;;12.43;7.90;;;11.40;90.90;;;;;;5032420;28;20093;-74
2023/04/18 07:50:42;;;;;;;15.98;8.60;;;11.20;90.30;;;;;;5032999;28;20048;-79
2023/04/18 07:53:07;;;;;;;11.73;8.02;;;11.40;89.30;;;;;;5015986;28;20037;-76
2023/04/18 07:55:33;;;;;;;11.80;9.05;;;11.20;89.40;;;;;;5048928;28;20044;-77
2023/04/18 07:57:59;;;;;;;10.52;8.20;;;11.20;90.30;;;;;;5032433;28;20543;-77
2023/04/18 08:00:25;;;;;;;12.63;9.50;;;11.50;89.70;;;;;;5032458;28;20042;-77
2023/04/18 08:02:50;;;;;;;13.07;8.68;;;11.60;86.50;;;;;;5033737;28;20041;-78
2023/04/18 08:05:18;;;;;;;14.10;9.52;;;11.80;86.10;;;;;;5032561;28;20060;-76
2023/04/18 08:07:44;;;;;;;13.48;8.32;;;11.70;85.70;;;;;;5033668;28;20037;-77
2023/04/18 08:10:10;;;;;;;13.77;9.07;;;11.80;85.50;;;;;;5034323;28;20037;-77
2023/04/18 08:12:36;;;;;;;12.70;8.48;;;11.80;85.80;;;;;;5016885;28;20073;-78
2023/04/18 08:15:02;;;;;;;13.40;8.75;;;11.80;85.80;;;;;;5033558;28;20090;-79
2023/04/18 08:17:28;;;;;;;14.02;8.98;;;12.00;86.80;;;;;;5020870;28;20493;-79
2023/04/18 08:19:53;;;;;;;11.98;8.52;;;12.10;84.40;;;;;;5039616;28;20033;-78
2023/04/18 08:22:19;;;;;;;13.57;8.30;;;12.10;81.90;;;;;;5050262;28;20055;-78
2023/04/18 08:24:44;;;;;;;10.63;8.60;;;12.20;81.50;;;;;;5032302;28;20519;-78
2023/04/18 08:27:10;;;;;;;14.68;7.97;;;12.20;79.90;;;;;;5051510;28;20408;-78
2023/04/18 08:29:35;;;;;;;11.73;7.80;;;12.40;80.30;;;;;;5045739;28;20040;-78
2023/04/18 08:32:01;;;;;;;10.88;7.75;;;12.60;80.00;;;;;;5045822;28;20454;-76
2023/04/18 08:34:28;;;;;;;10.23;7.97;;;12.70;79.20;;;;;;5044654;28;20492;-77
2023/04/18 08:36:53;;;;;;;10.25;8.02;;;12.60;78.10;;;;;;5050623;28;20077;-77
2023/04/18 08:39:19;;;;;;;12.98;8.13;;;12.80;78.40;;;;;;5036633;28;20507;-77
2023/04/18 08:41:52;;;;;;;15.02;9.38;;;12.90;79.10;;;;;;5034055;28;20024;-77
2023/04/18 08:44:18;;;;;;;11.90;7.93;;;12.80;77.60;;;;;;5034119;28;20033;-77
2023/04/18 08:46:43;;;;;;;10.93;8.23;;;12.60;77.00;;;;;;5034050;28;20044;-78
2023/04/18 08:49:09;;;;;;;13.68;8.45;;;12.70;77.00;;;;;;5051101;28;20128;-77
2023/04/18 08:51:38;;;;;;;12.63;7.95;;;12.80;77.00;;;;;;5050006;28;20485;-77
2023/04/18 08:54:05;;;;;;;13.00;8.00;;;13.00;77.20;;;;;;5033808;28;20048;-77
2023/04/18 08:56:30;;;;;;;13.27;8.65;;;12.90;76.70;;;;;;5048950;28;20044;-77
2023/04/18 08:58:59;;;;;;;14.23;8.65;;;13.30;77.30;;;;;;5033567;28;20141;-77
2023/04/18 09:02:05;;;;;;;12.07;8.10;;;13.40;76.40;;;;;;5033693;28;20121;-77
2023/04/18 09:04:39;;;;;;;14.70;8.15;;;13.50;74.50;;;;;;4987543;28;20037;-76
2023/04/18 09:07:08;;;;;;;10.25;7.93;;;13.50;74.40;;;;;;5009810;28;20069;-77
2023/04/18 09:09:56;;;;;;;10.73;7.30;;;13.50;73.90;;;;;;5012737;28;20052;-76
2023/04/18 09:12:24;;;;;;;12.60;8.10;;;13.50;72.40;;;;;;5050122;28;20143;-75
2023/04/18 09:15:10;;;;;;;12.57;7.78;;;13.50;72.40;;;;;;5050292;28;20087;-79
2023/04/18 09:17:41;;;;;;;9.48;7.35;;;13.40;72.10;;;;;;5050152;28;22316;-76
2023/04/18 09:20:10;;;;;;;11.27;7.97;;;13.40;73.00;;;;;;5047644;28;20567;-76
2023/04/18 09:22:47;;;;;;;11.35;7.25;;;13.50;73.00;;;;;;5053764;28;20086;-77
2023/04/18 09:25:39;;;;;;;13.10;7.78;;;13.20;71.90;;;;;;5039259;28;20500;-77
2023/04/18 09:28:21;;;;;;;11.02;7.20;;;13.20;72.00;;;;;;5053894;28;20040;-79
2023/04/18 09:30:48;;;;;;;9.95;7.65;;;13.20;72.00;;;;;;5053981;28;20041;-80
2023/04/18 09:33:13;;;;;;;9.60;6.35;;;13.40;73.20;;;;;;5052598;28;20037;-79
2023/04/18 09:35:39;;;;;;;11.15;7.00;;;13.40;72.60;;;;;;5036517;28;20716;-79
2023/04/18 09:38:06;;;;;;;12.40;7.38;;;13.30;71.10;;;;;;5036898;28;20053;-86
2023/04/18 09:40:32;;;;;;;9.85;7.50;;;13.30;71.20;;;;;;5037523;28;20097;-72
2023/04/18 09:42:58;;;;;;;10.13;7.10;;;13.30;71.80;;;;;;5049371;28;20120;-74
2023/04/18 09:45:24;;;;;;;11.10;7.93;;;13.10;71.40;;;;;;5050125;28;20071;-75
2023/04/18 09:47:51;;;;;;;11.15;7.40;;;13.00;71.50;;;;;;5050287;28;20500;-74
2023/04/18 09:50:17;;;;;;;12.57;7.53;;;13.00;72.80;;;;;;5051200;28;20123;-75
2023/04/18 09:52:44;;;;;;;10.82;7.25;;;13.10;72.70;;;;;;5050025;28;20094;-75
2023/04/18 09:55:13;;;;;;;16.70;8.52;;;13.10;72.90;;;;;;5049762;28;20044;-74
2023/04/18 09:57:41;;;;;;;14.68;7.88;;;13.10;72.90;;;;;;5033336;28;20043;-74
2023/04/18 10:00:19;;;;;;;10.13;7.85;;;13.20;73.00;;;;;;5049994;28;20124;-75
2023/04/18 10:02:57;;;;;;;12.90;8.13;;;13.20;72.50;;;;;;5034633;28;20037;-73
2023/04/18 10:05:25;;;;;;;10.10;8.40;;;13.20;71.80;;;;;;5055019;28;20041;-71
2023/04/18 10:07:53;;;;;;;14.55;8.32;;;13.20;71.90;;;;;;5054860;28;20068;-71
2023/04/18 10:10:19;;;;;;;12.70;7.78;;;13.40;72.00;;;;;;5053890;28;20037;-71
2023/04/18 10:12:46;;;;;;;11.68;8.57;;;13.20;72.20;;;;;;5037263;28;20086;-71
2023/04/18 10:15:14;;;;;;;11.85;7.18;;;13.20;73.20;;;;;;5052761;28;20037;-71
2023/04/18 10:18:00;;;;;;;10.95;7.40;;;13.20;73.20;;;;;;5053274;28;20047;-71
2023/04/18 10:20:28;;;;;;;11.27;8.15;;;13.30;73.60;;;;;;5053016;28;20516;-71
2023/04/18 10:22:55;;;;;;;10.55;7.57;;;13.30;73.90;;;;;;5051832;28;20464;-71
2023/04/18 10:25:47;;;;;;;12.13;7.38;;;13.20;73.80;;;;;;5052958;28;20123;-71
2023/04/18 10:28:13;;;;;;;10.50;7.28;;;13.30;76.20;;;;;;5049218;28;20049;-71
2023/04/18 10:30:39;;;;;;;12.60;8.15;;;13.30;75.80;;;;;;5054202;28;20060;-71
2023/04/18 10:33:29;;;;;;;7.65;6.50;;;13.20;75.90;;;;;;5054923;28;20047;-71
2023/04/18 10:36:12;;;;;;;10.38;6.93;;;13.10;76.50;;;;;;5054489;28;20041;-71
2023/04/18 10:38:44;;;;;;;11.77;7.15;;;13.20;77.20;;;;;;5054969;28;20083;-71
2023/04/18 10:41:14;;;;;;;9.40;6.60;;;13.20;78.20;;;;;;5054547;28;20037;-71
2023/04/18 10:44:04;;;;;;;8.68;6.70;;;13.20;78.20;;;;;;5053457;28;20401;-71
2023/04/18 10:46:30;;;;;;;9.90;6.78;;;13.20;78.20;;;;;;5053287;28;20080;-71
2023/04/18 10:49:15;;;;;;;8.70;6.13;;;13.30;79.30;;;;;;5053275;28;20150;-71
2023/04/18 10:51:45;;;;;;;8.80;7.20;;;13.40;79.50;;;;;;5079903;22;20044;-67
2023/04/18 10:54:17;;;;;;;10.93;7.13;;;13.40;78.90;;;;;;5056495;28;20076;-68
2023/04/18 10:56:53;;;;;;;8.65;6.20;;;13.40;79.80;;;;;;5074366;28;20105;-67
2023/04/18 10:59:22;;;;;;;9.32;6.60;;;13.50;80.20;;;;;;5074346;28;20446;-67
2023/04/18 11:01:53;;;;;;;9.20;7.05;;;13.60;80.50;;;;;;5073911;28;20041;-67
2023/04/18 11:04:19;;;;;;;8.98;6.20;;;13.50;80.70;;;;;;5069509;28;20108;-68
2023/04/18 11:06:54;;;;;;;8.80;6.05;;;13.40;80.40;;;;;;5073864;28;20076;-67
2023/04/18 11:09:21;;;;;;;8.00;5.80;;;13.50;80.10;;;;;;5065955;28;20158;-68
2023/04/18 11:12:05;;;;;;;11.70;7.22;;;13.40;80.40;;;;;;5057402;28;20051;-68
2023/04/18 11:14:48;;;;;;;13.35;6.90;;;13.40;81.40;;;;;;5052703;28;20417;-68
2023/04/18 11:17:17;;;;;;;9.00;7.25;;;13.50;81.40;;;;;;5053736;28;20064;-67
2023/04/18 11:19:43;;;;;;;10.73;6.95;;;13.50;82.00;;;;;;5056148;28;20037;-67
2023/04/18 11:22:10;;;;;;;8.38;6.50;;;13.50;82.50;;;;;;5055753;28;20028;-67
2023/04/18 11:24:36;;;;;;;11.98;7.32;;;13.60;82.40;;;;;;5073790;28;20028;-68
2023/04/18 11:27:03;;;;;;;13.63;6.80;;;13.60;82.10;;;;;;5073560;28;20140;-68
2023/04/18 11:29:29;;;;;;;9.32;7.05;;;13.60;82.40;;;;;;5073826;28;20119;-67
2023/04/18 11:31:54;;;;;;;12.98;7.00;;;13.50;82.30;;;;;;5073140;28;20112;-68
2023/04/18 11:34:20;;;;;;;9.00;7.00;;;13.60;82.50;;;;;;5073578;28;20522;-68
2023/04/18 11:36:50;;;;;;;10.52;7.20;;;13.60;83.00;;;;;;5073433;28;20040;-68
2023/04/18 11:39:17;;;;;;;8.95;7.47;;;13.70;83.10;;;;;;5073592;28;20032;-69
2023/04/18 11:41:49;;;;;;;10.27;7.05;;;13.70;82.30;;;;;;5073621;28;20052;-68
2023/04/18 11:44:15;;;;;;;9.80;7.43;;;13.70;83.10;;;;;;5073550;28;20416;-68
2023/04/18 11:46:41;;;;;;;8.82;6.53;;;13.60;83.70;;;;;;5073299;28;20044;-68
2023/04/18 11:49:06;;;;;;;8.48;6.88;;;13.50;84.30;;;;;;5073330;28;20039;-68
2023/04/18 11:51:38;;;;;;;6.68;5.95;;;13.50;84.80;;;;;;5055195;28;20047;-69
2023/04/18 11:54:04;;;;;;;10.43;6.35;;;13.70;84.30;;;;;;5072766;28;20037;-68
2023/04/18 11:56:30;;;;;;;8.15;5.78;;;13.80;83.70;;;;;;5072144;28;20036;-68
2023/04/18 11:58:56;;;;;;;8.85;5.45;;;13.80;82.20;;;;;;5072820;28;20059;-68
2023/04/18 12:01:23;;;;;;;8.05;5.60;;;13.70;82.40;;;;;;5073311;28;20068;-68
2023/04/18 12:04:06;;;;;;;6.03;4.90;;;13.70;82.20;;;;;;5072529;28;20593;-69
2023/04/18 12:06:45;;;;;;;9.23;5.15;;;13.80;83.00;;;;;;5072770;28;20044;-69
2023/04/18 12:09:15;;;;;;;6.18;4.50;;;13.90;82.40;;;;;;5072955;28;20496;-70
2023/04/18 12:11:41;;;;;;;5.93;4.95;;;13.90;81.90;;;;;;5045972;28;20389;-69
2023/04/18 12:14:17;;;;;;;10.98;5.47;;;13.80;81.50;;;;;;5065761;28;20044;-69
2023/04/18 12:16:43;;;;;;;5.47;4.28;;;13.80;80.70;;;;;;5059771;28;20126;-70
2023/04/18 12:19:10;;;;;;;6.03;4.57;;;13.80;81.40;;;;;;5072528;28;20063;-68
2023/04/18 12:21:49;;;;;;;6.78;4.88;;;13.80;81.10;;;;;;5054655;28;20033;-68
2023/04/18 12:24:15;;;;;;;5.20;4.30;;;13.80;81.20;;;;;;5072691;28;20052;-68
2023/04/18 12:26:44;;;;;;;7.18;5.07;;;13.90;81.00;;;;;;5054248;28;20040;-68
2023/04/18 12:29:10;;;;;;;6.70;5.00;;;14.10;81.40;;;;;;5072318;28;20037;-70
2023/04/18 12:31:35;;;;;;;5.95;4.63;;;14.20;82.10;;;;;;5072190;28;20049;-69
2023/04/18 12:34:01;;;;;;;5.97;4.47;;;14.10;79.90;;;;;;5072205;28;20119;-69
2023/04/18 12:36:27;;;;;;;5.15;3.80;;;14.20;80.00;;;;;;5071518;28;20442;-68
2023/04/18 12:38:53;;;;;;;7.55;4.60;;;14.10;81.10;;;;;;5068346;28;20041;-68
2023/04/18 12:41:18;;;;;;;5.63;4.30;;;14.10;81.80;;;;;;5072165;28;20495;-70
2023/04/18 12:43:44;;;;;;;7.93;4.75;;;13.90;82.50;;;;;;5072089;28;20090;-68
2023/04/18 12:46:09;;;;;;;7.35;5.15;;;13.90;82.50;;;;;;5063399;28;20408;-68